Flight Track Log - Related Links

Times and Time Zones

All times are in EDT time to prevent confusion due to time zone crossing. See the NKS727 flight status page for this flight to view local times or setup timezone preferences in your user account.

Time Position Orientation Groundspeed Altitude Reporting Facility
EDT Latitude Longitude Course Direction KTS MPH feet Rate Location/Type
Sat 07:21:12 PM 40.0791 -79.5833 213° Southwest 283 326 10,900  Level FlightAware ADS-B
Sat 07:21:54 PM 40.0333 -79.6218 213° Southwest 274 315 13,500 3,344 Climbing FlightAware ADS-B
Sat 07:22:13 PM 40.0116 -79.6368 200° South 295 339 14,300 1,556 Climbing FlightAware ADS-B
Sat 07:23:15 PM 39.9356 -79.6539 200° South 323 372 15,600 1,902 Climbing Cleveland Center
Sat 07:24:16 PM 39.8400 -79.6725 189° South 342 394 18,200 1,820 Climbing Cleveland Center
Sat 07:25:17 PM 39.7317 -79.6992 191° South 396 456 19,300 934 Climbing Cleveland Center
Sat 07:26:18 PM 39.6100 -79.7247 189° South 436 502 20,100 1,672 Climbing Cleveland Center
Sat 07:27:19 PM 39.4539 -79.7581 189° South 469 540 22,700 1,623 Climbing Cleveland Center
Sat 07:28:20 PM 39.3225 -79.7864 189° South 475 547 23,400 683 Climbing Cleveland Center
Sat 07:29:22 PM 39.1822 -79.8169 190° South 504 580 24,100 878 Climbing Cleveland Center
Sat 07:30:23 PM 39.0386 -79.8469 189° South 518 596 25,200 1,131 Climbing Cleveland Center
Sat 07:31:24 PM 38.8953 -79.8781 190° South 519 597 26,400 1,082 Climbing Cleveland Center
Sat 07:32:25 PM 38.7542 -79.9078 189° South 515 593 27,400 1,082 Climbing Cleveland Center
Sat 07:33:26 PM 38.6192 -79.9364 189° South 516 594 28,600 1,180 Climbing Cleveland Center
Sat 07:34:27 PM 38.4769 -79.9661 189° South 517 595 29,800 1,426 Climbing Cleveland Center
Sat 07:35:28 PM 38.3097 -80.0025 190° South 510 587 31,500 1,475 Climbing Cleveland Center
Sat 07:36:29 PM 38.1981 -80.0244 189° South 508 585 32,800 1,122 Climbing Cleveland Center
Sat 07:37:47 PM 38.0242 -80.0625 190° South 489 563 34,100 1,000 Climbing Washington Center
Sat 07:38:47 PM 37.8669 -80.0958 190° South 492 566 35,100 942 Climbing Washington Center
Sat 07:39:48 PM 37.7361 -80.1236 190° South 494 568 36,000 443 Climbing Washington Center
Sat 07:40:49 PM 37.6067 -80.1483 189° South 487 560 36,000  Level Washington Center
Sat 07:41:53 PM 37.4817 -80.1742 189° South 474 545 36,000  Level Washington Center
Sat 07:42:55 PM 37.3319 -80.2058 190° South 470 541 36,000  Level Washington Center
Sat 07:43:55 PM 37.2061 -80.2314 189° South 471 542 36,000  Level Washington Center
Sat 07:44:55 PM 37.0781 -80.2592 190° South 478 550 36,000  Level Washington Center
Sat 07:45:59 PM 36.9206 -80.2906 189° South 488 562 36,000  Level Washington Center
Sat 07:46:52 PM 36.7881 -80.3142 188° South 501 577 36,000  Level Atlanta Center
Sat 07:47:52 PM 36.6511 -80.3411 189° South 501 577 36,000  Level Atlanta Center
Sat 07:48:52 PM 36.5164 -80.3706 190° South 501 577 36,000  Level Atlanta Center
Sat 07:49:52 PM 36.3839 -80.3972 189° South 501 577 36,000  Level Atlanta Center
Sat 07:50:52 PM 36.2636 -80.4208 189° South 501 577 36,000  Level Atlanta Center
Sat 07:51:52 PM 36.1267 -80.4475 189° South 501 577 36,000  Level Atlanta Center
Sat 07:52:52 PM 35.9939 -80.4714 188° South 501 577 36,000  Level Atlanta Center
Sat 07:53:52 PM 35.8489 -80.5008 189° South 484 557 36,000  Level Atlanta Center
Sat 08:00:13 PM 34.9825 -80.6712 189° South 493 567 36,000  Level FlightAware ADS-B
Sat 08:00:57 PM 34.8830 -80.6902 189° South 488 562 36,000  Level FlightAware ADS-B
Sat 08:01:42 PM 34.7816 -80.7095 189° South 487 560 36,000  Level FlightAware ADS-B
Sat 08:02:13 PM 34.7138 -80.7186 185° South 492 566 36,000  Level FlightAware ADS-B
Sat 08:02:58 PM 34.6116 -80.7280 185° South 492 566 36,000  Level FlightAware ADS-B
Sat 08:03:30 PM 34.5416 -80.7355 185° South 492 566 36,000  Level FlightAware ADS-B
Sat 08:04:16 PM 34.4339 -80.7477 186° South 492 566 36,000  Level FlightAware ADS-B
Sat 08:05:04 PM 34.3238 -80.7601 185° South 493 567 36,000  Level FlightAware ADS-B
Sat 08:05:38 PM 34.2489 -80.7683 185° South 494 568 36,000  Level FlightAware ADS-B
Sat 08:06:21 PM 34.1494 -80.7794 185° South 495 570 36,000  Level FlightAware ADS-B
Sat 08:07:02 PM 34.0553 -80.7900 185° South 494 568 36,000  Level FlightAware ADS-B
Sat 08:07:51 PM 33.9429 -80.8021 185° South 495 570 36,000  Level FlightAware ADS-B
Sat 08:08:22 PM 33.8734 -80.8097 185° South 495 570 36,000  Level FlightAware ADS-B
Sat 08:08:54 PM 33.8005 -80.8177 185° South 496 571 36,000  Level FlightAware ADS-B
Sat 08:09:36 PM 33.7034 -80.8245 183° South 499 574 36,000  Level FlightAware ADS-B
Sat 08:10:13 PM 33.6176 -80.8296 183° South 499 574 36,000  Level FlightAware ADS-B
Sat 08:10:45 PM 33.5454 -80.8344 183° South 499 574 36,000  Level FlightAware ADS-B
Sat 08:11:30 PM 33.4415 -80.8418 183° South 499 574 36,000  Level FlightAware ADS-B
Sat 08:12:13 PM 33.3410 -80.8487 183° South 497 572 36,000  Level FlightAware ADS-B
Sat 08:12:45 PM 33.2686 -80.8537 183° South 495 570 36,000  Level FlightAware ADS-B
Sat 08:13:16 PM 33.1988 -80.8584 183° South 495 570 36,000  Level FlightAware ADS-B
Sat 08:13:46 PM 33.1291 -80.8629 183° South 496 571 36,000  Level FlightAware ADS-B
Sat 08:14:19 PM 33.0549 -80.8680 183° South 498 573 36,000  Level FlightAware ADS-B
Sat 08:14:49 PM 32.9852 -80.8728 183° South 498 573 36,000  Level FlightAware ADS-B
Sat 08:15:45 PM 32.8552 -80.8817 183° South 498 573 36,000  Level FlightAware ADS-B
Sat 08:16:47 PM 32.7186 -80.8975 183° South 498 573 36,000  Level Jacksonville Center
Sat 08:17:47 PM 32.5933 -80.8856 175° South 498 573 36,000 -50 Level Jacksonville Center
Sat 08:18:47 PM 32.4550 -80.8639 172° South 498 573 35,900  Descending Jacksonville Center
Sat 08:19:47 PM 32.3067 -80.8475 175° South 498 573 36,000 50 Climbing Jacksonville Center
Sat 08:20:47 PM 32.1789 -80.8308 174° South 508 585 36,000  Level Jacksonville Center
Sat 08:21:47 PM 32.0242 -80.8122 174° South 508 585 36,000  Level Jacksonville Center
Sat 08:22:47 PM 31.8883 -80.7981 175° South 502 578 36,000  Level Jacksonville Center
Sat 08:23:47 PM 31.7628 -80.7814 174° South 502 578 36,000  Level Jacksonville Center
Sat 08:24:47 PM 31.6247 -80.7675 175° South 502 578 36,000  Level Jacksonville Center
Sat 08:25:47 PM 31.4719 -80.7489 174° South 502 578 36,000  Level Jacksonville Center
Sat 08:26:47 PM 31.3358 -80.7328 174° South 502 578 36,000  Level Jacksonville Center
Sat 08:27:47 PM 31.1978 -80.7164 174° South 502 578 36,000 -50 Level Jacksonville Center
Sat 08:28:47 PM 31.0578 -80.7003 174° South 497 572 35,900 -50 Descending Jacksonville Center
Sat 08:29:47 PM 30.9197 -80.6842 174° South 503 579 35,900 50 Level Jacksonville Center
Sat 08:30:47 PM 30.7817 -80.6681 174° South 503 579 36,000 50 Climbing Jacksonville Center
Sat 08:31:47 PM 30.6414 -80.6519 174° South 503 579 36,000  Level Jacksonville Center
Sat 08:32:47 PM 30.5014 -80.6358 174° South 503 579 36,000  Level Jacksonville Center
Sat 08:33:47 PM 30.3653 -80.6200 174° South 503 579 36,000  Level Jacksonville Center
Sat 08:39:33 PM 29.5734 -80.5280 175° South 491 565 36,000  Level FlightAware ADS-B
Sat 08:40:08 PM 29.4946 -80.5192 174° South 489 563 36,000  Level FlightAware ADS-B
Sat 08:40:46 PM 29.4075 -80.5094 174° South 490 564 36,000  Level FlightAware ADS-B
Sat 08:41:28 PM 29.3328 -80.5008 174° South 491 565 36,000  Level FlightAware ADS-B
Sat 08:42:07 PM 29.2267 -80.4844 165° South 497 572 36,000  Level FlightAware ADS-B
Sat 08:42:48 PM 29.1346 -80.4493 162° South 500 575 36,000  Level FlightAware ADS-B
Sat 08:43:29 PM 29.0492 -80.4173 162° South 501 577 36,000  Level FlightAware ADS-B
Sat 08:44:09 PM 28.9575 -80.3832 162° South 501 577 36,000  Level FlightAware ADS-B
Sat 08:44:48 PM 28.8820 -80.3551 162° South 499 574 36,000  Level FlightAware ADS-B
Sat 08:45:28 PM 28.7830 -80.3181 162° South 498 573 36,000  Level FlightAware ADS-B
Sat 08:46:08 PM 28.6953 -80.2853 162° South 497 572 36,000  Level FlightAware ADS-B
Sat 08:46:48 PM 28.6168 -80.2560 162° South 496 571 36,000 -74 Level FlightAware ADS-B
Sat 08:47:29 PM 28.5277 -80.2229 162° South 494 568 35,900 -75 Descending FlightAware ADS-B
Sat 08:48:08 PM 28.4421 -80.1913 162° South 494 568 35,900  Level FlightAware ADS-B
Sat 08:48:49 PM 28.3479 -80.1564 162° South 493 567 35,900 75 Level FlightAware ADS-B
Sat 08:49:28 PM 28.2602 -80.1241 162° South 493 567 36,000 76 Climbing FlightAware ADS-B
Sat 08:50:08 PM 28.1743 -80.0924 162° South 493 567 36,000 -81 Level FlightAware ADS-B
Sat 08:50:42 PM 28.1055 -80.0672 162° South 487 560 35,900 -1,109 Descending FlightAware ADS-B
Sat 08:52:07 PM 27.9217 -79.9994 162° South 480 552 33,800 -1,667 Descending FlightAware ADS-B
Sat 08:52:48 PM 27.8620 -79.9775 162° South 487 560 32,400 -2,049 Descending FlightAware ADS-B
Sat 08:53:29 PM 27.7460 -79.9350 162° South 485 558 31,000 -2,154 Descending FlightAware ADS-B
Sat 08:54:06 PM 27.6644 -79.9055 162° South 472 543 29,600 -2,143 Descending FlightAware ADS-B
Sat 08:54:39 PM 27.5968 -79.8807 162° South 463 533 28,500 -1,905 Descending FlightAware ADS-B
Sat 08:55:09 PM 27.5370 -79.8588 162° South 454 522 27,600 -1,826 Descending FlightAware ADS-B
Sat 08:55:48 PM 27.4644 -79.8325 162° South 442 509 26,400 -1,840 Descending FlightAware ADS-B
Sat 08:56:24 PM 27.3914 -79.8060 162° South 433 498 25,300 -1,904 Descending FlightAware ADS-B
Sat 08:59:38 PM 27.0330 -79.6921 165° South 395 455 19,100 -1,860 Descending FlightAware ADS-B
Sat 09:01:53 PM 26.8075 -79.6567 165° South 354 407 15,100 -1,785 Descending Miami Center
Sat 09:02:53 PM 26.7233 -79.6989 204° Southwest 364 419 13,300 -1,850 Descending Miami Center
Sat 09:03:53 PM 26.6242 -79.7453 203° Southwest 358 412 11,400 -1,750 Descending Miami Center
Sat 09:04:53 PM 26.5483 -79.7806 203° Southwest 347 399 9,800 -1,731 Descending Miami Center
Sat 09:05:37 PM 26.4744 -79.8158 203° Southwest 331 381 8,400 -1,700 Descending Miami Center
Sat 09:05:53 PM 26.4533 -79.8247 201° Southwest 336 387 8,100 -393 Descending Miami Center
Sat 09:06:38 PM 26.3900 -79.8556 204° Southwest 329 379 8,000 -100 Descending Miami Center
Sat 09:06:53 PM 26.3794 -79.8622 210° Southwest 330 380 8,000  Level Miami Center
Sat 09:07:39 PM 26.3242 -79.9164 221° Southwest 291 335 8,000 -200 Level Miami Center
Sat 09:07:53 PM 26.3114 -79.9253 212° Southwest 305 351 7,800 -984 Descending Miami Center
Sat 09:08:40 PM 26.2622 -79.9775 224° Southwest 290 334 7,000 -800 Descending Miami Center
Sat 09:08:53 PM 26.2622 -79.9750 90° East 299 344 7,000 -909 Level Miami Center
Sat 09:09:46 PM 26.1983 -80.0358 221° Southwest 276 318 6,000 -556 Descending Miami Center
Sat 09:10:41 PM 26.1633 -80.1019 239° Southwest 271 312 6,000  Level Miami Center
Sat 09:10:53 PM 26.1656 -80.1067 298° West 280 322 6,000 -689 Level Miami Center
Sat 09:11:42 PM 26.1469 -80.1825 255° West 269 310 5,300 -800 Descending Miami Center
Sat 09:11:53 PM 26.1511 -80.1897 303° West 267 307 5,200 -1,279 Descending Miami Center
Sat 09:12:43 PM 26.1472 -80.2683 267° West 271 312 4,000 -1,200 Descending Miami Center
Sat 09:12:53 PM 26.1511 -80.2706 333° Northwest 261 300 4,000 -98 Level Miami Center
Sat 09:13:44 PM 26.1289 -80.3303 247° West 192 221 3,900 -696 Descending Miami Center
Sat 09:14:45 PM 26.0792 -80.3194 169° South 172 198 2,700 -1,091 Descending Miami Center
Sat 09:15:45 PM 26.0739 -80.2686 97° East 174 200 1,700 -893 Descending Miami Center
Sat 09:16:46 PM 26.0753 -80.2175 88° East 132 152 900 -787 Descending Miami Center
Sat 09:18:00 PM 26.0667 -80.1500 103° East  Level FlightAware Approximate
Sat 09:25:00 PM 26.0726 -80.1527 103° East  Level Estimated
Sat 09:26:00 PM 26.0667 -80.1500 103° East  Level FlightAware Approximate

Login

Don't have an account? Register now (free) for customized features, flight alerts, and more!